Terminal Aerodrome Forecast
Issued by NWS

Home | Current Version | Previous Version | Text Only | Print | Product List | Glossary On
Versions: 1 2 3 4 5 6 7 8 9 10 11 12 13 14 15 16 17
000
FTUS45 KTFX 050933 AAB
TAFCTB
TAF AMD
KCTB 050933Z 0510/0606 36011KT P6SM -SHRA SCT015 OVC025
      TEMPO 0510/0513 2SM -SHRA BKN008
     FM051400 01007KT P6SM SCT070 BKN110=

USA.gov is the U.S. government's official web portal to all federal, state and local government web resources and services.